Time;durP1;ratioP1;P1;durP2;ratioP2;P2;SDS_P1;SDS_P2;PMS_P1;PMS_P2;Temp;Humidity;BMP_temperature;BMP_pressure;BME280_temperature;BME280_humidity;BME280_pressure;Samples;Min_cycle;Max_cycle;Signal;HPM_P1;HPM_P2
2022/05/28 00:00:34;;;;;;;2.77;1.47;;;;;;;14.36;55.41;100098.91;1417784;92;21362;-90
2022/05/28 00:03:01;;;;;;;1.97;1.00;;;;;;;14.35;55.81;100102.56;1416772;92;21398;-91
2022/05/28 00:05:28;;;;;;;1.17;0.80;;;;;;;14.36;55.85;100095.42;1415525;92;21370;-90
2022/05/28 00:07:54;;;;;;;0.60;0.60;;;;;;;14.36;55.92;100102.91;1416135;92;21592;-92
2022/05/28 00:10:20;;;;;;;2.77;1.27;;;;;;;14.38;56.01;100103.52;1385781;92;21531;-92
2022/05/28 00:12:48;;;;;;;0.87;0.60;;;;;;;14.40;55.80;100097.53;1421392;92;22499;-93
2022/05/28 00:15:15;;;;;;;3.47;0.70;;;;;;;14.41;55.75;100097.87;1414479;92;21347;-93
2022/05/28 00:17:41;;;;;;;8.97;1.30;;;;;;;14.45;55.83;100100.48;1410135;92;22462;-94
2022/05/28 00:20:10;;;;;;;2.47;0.77;;;;;;;14.46;55.88;100095.98;1405640;93;21442;-93
2022/05/28 00:22:42;;;;;;;1.00;0.70;;;;;;;14.48;56.11;100091.81;1402124;93;21325;-93
2022/05/28 00:25:12;;;;;;;7.93;0.97;;;;;;;14.39;56.70;100099.88;1406770;93;22263;-90
2022/05/28 00:27:40;;;;;;;1.65;1.05;;;;;;;14.38;55.98;100117.34;1400573;93;21569;-93
2022/05/28 00:30:11;;;;;;;3.70;0.90;;;;;;;14.34;55.94;100108.90;1393114;93;22546;-92
2022/05/28 00:32:38;;;;;;;1.87;1.10;;;;;;;14.33;56.56;100113.09;1406734;93;21545;-89
2022/05/28 00:35:06;;;;;;;1.53;0.90;;;;;;;14.27;56.67;100102.66;1405118;93;21494;-91
2022/05/28 00:37:32;;;;;;;3.60;1.10;;;;;;;14.26;56.53;100095.66;1400611;90;21458;-93
2022/05/28 00:40:05;;;;;;;2.00;0.90;;;;;;;14.25;56.16;100082.03;1406071;92;21369;-91
2022/05/28 00:42:31;;;;;;;4.87;0.90;;;;;;;14.25;56.40;100086.02;1400436;92;21452;-90
2022/05/28 00:44:57;;;;;;;1.97;1.33;;;;;;;14.23;56.38;100085.38;1409767;91;21511;-91
2022/05/28 00:47:24;;;;;;;2.73;0.70;;;;;;;14.18;56.35;100083.74;1394771;93;21369;-92
2022/05/28 00:49:52;;;;;;;2.63;0.83;;;;;;;14.18;56.53;100095.72;1400560;93;21480;-90
2022/05/28 00:52:22;;;;;;;2.90;0.80;;;;;;;14.19;56.57;100094.73;1413062;93;21391;-93
2022/05/28 00:54:49;;;;;;;1.92;0.80;;;;;;;14.13;57.14;100094.13;1397540;92;22343;-91
2022/05/28 00:57:17;;;;;;;2.40;0.90;;;;;;;14.14;57.10;100097.92;1412485;93;21597;-91
2022/05/28 00:59:45;;;;;;;1.10;0.80;;;;;;;14.14;56.71;100091.77;1410283;92;22382;-91
2022/05/28 01:02:34;;;;;;;0.80;0.80;;;;;;;14.12;56.67;100086.61;1408415;92;21421;-91
2022/05/28 01:05:15;;;;;;;3.80;1.00;;;;;;;14.14;56.65;100083.79;1408999;92;21579;-91
2022/05/28 01:07:52;;;;;;;3.60;1.35;;;;;;;14.13;57.32;100076.31;1410791;93;21406;-91
2022/05/28 01:10:39;;;;;;;1.20;0.77;;;;;;;14.08;56.92;100071.20;1398370;93;21465;-93
2022/05/28 01:13:16;;;;;;;1.80;0.70;;;;;;;14.08;56.99;100067.22;1406464;93;21436;-93
2022/05/28 01:15:51;;;;;;;1.87;0.93;;;;;;;14.05;57.04;100079.55;1398670;92;22414;-91
2022/05/28 01:18:25;;;;;;;5.80;1.07;;;;;;;13.99;57.28;100075.26;1397216;92;21450;-92
2022/05/28 01:20:56;;;;;;;1.83;0.80;;;;;;;13.93;57.93;100071.16;1395499;93;22315;-91
2022/05/28 01:23:37;;;;;;;5.00;1.30;;;;;;;13.91;57.98;100081.14;1407700;92;22493;-93
2022/05/28 01:26:48;;;;;;;1.55;1.20;;;;;;;13.91;57.80;100085.95;1401469;92;21568;-90
2022/05/28 01:29:17;;;;;;;2.50;1.40;;;;;;;13.93;57.80;100085.79;1400520;93;21576;-92
2022/05/28 01:31:46;;;;;;;2.67;0.70;;;;;;;13.93;58.25;100089.78;1391881;93;21532;-89
2022/05/28 01:34:15;;;;;;;1.90;1.00;;;;;;;13.93;57.79;100082.62;1403943;93;22434;-88
2022/05/28 01:36:43;;;;;;;2.90;1.73;;;;;;;13.96;58.15;100084.92;1407475;92;21677;-89
2022/05/28 01:39:11;;;;;;;3.70;0.93;;;;;;;13.98;58.35;100085.59;1426518;91;21623;-93
2022/05/28 01:41:39;;;;;;;1.10;0.87;;;;;;;14.00;58.37;100081.40;1427465;91;21362;-93
2022/05/28 01:44:09;;;;;;;1.10;0.80;;;;;;;14.01;58.45;100083.05;1414462;92;21930;-91
2022/05/28 01:46:39;;;;;;;1.30;1.10;;;;;;;14.00;58.18;100075.57;1411490;92;21325;-92
2022/05/28 01:49:10;;;;;;;7.03;1.00;;;;;;;14.02;59.17;100078.58;1420012;92;22309;-92
2022/05/28 01:51:44;;;;;;;2.93;1.30;;;;;;;14.04;58.58;100084.52;1423114;92;21512;-91
2022/05/28 01:54:14;;;;;;;1.60;0.93;;;;;;;14.05;58.15;100090.19;1404605;92;21451;-91
2022/05/28 01:56:45;;;;;;;4.72;1.42;;;;;;;14.06;58.56;100093.98;1434040;89;21479;-92
2022/05/28 01:59:19;;;;;;;3.23;0.93;;;;;;;14.07;58.13;100090.81;1433738;90;21413;-90
2022/05/28 02:01:45;;;;;;;4.07;0.83;;;;;;;14.07;58.02;100097.47;1442262;90;23384;-90
2022/05/28 02:04:13;;;;;;;3.10;0.90;;;;;;;14.08;58.10;100099.14;1439001;90;21508;-92
2022/05/28 02:06:41;;;;;;;3.30;0.97;;;;;;;14.08;58.37;100093.82;1444760;90;21449;-92
2022/05/28 02:09:17;;;;;;;5.63;1.50;;;;;;;14.08;58.29;100105.80;1439303;90;22441;-91
2022/05/28 02:12:21;;;;;;;1.73;0.80;;;;;;;14.05;58.48;100099.50;1451026;90;21549;-90
2022/05/28 02:15:17;;;;;;;2.13;1.10;;;;;;;14.03;58.46;100101.50;1435643;90;21346;-90
2022/05/28 02:18:21;;;;;;;2.47;1.20;;;;;;;13.98;58.84;100103.36;1428479;90;21458;-92
2022/05/28 02:21:13;;;;;;;1.93;1.20;;;;;;;13.96;58.88;100107.54;1437201;90;21649;-90
2022/05/28 02:24:01;;;;;;;0.97;0.70;;;;;;;13.92;59.11;100108.06;1448531;90;21440;-90
2022/05/28 02:26:51;;;;;;;1.27;0.80;;;;;;;13.91;58.97;100108.56;1434102;90;21390;-92
2022/05/28 02:29:19;;;;;;;2.53;1.23;;;;;;;13.88;59.65;100101.45;1437865;90;21427;-91
2022/05/28 02:31:48;;;;;;;2.60;1.30;;;;;;;13.86;59.41;100106.94;1435898;90;21508;-91
2022/05/28 02:34:16;;;;;;;2.60;1.37;;;;;;;13.83;59.45;100107.28;1445471;90;22365;-93
2022/05/28 02:36:43;;;;;;;2.40;1.50;;;;;;;13.82;60.82;100111.47;1440223;90;21383;-92
2022/05/28 02:39:10;;;;;;;3.40;1.40;;;;;;;13.80;59.79;100107.64;1432881;88;21495;-92
2022/05/28 02:41:36;;;;;;;2.73;1.50;;;;;;;13.81;59.83;100109.32;1422481;92;21319;-92
2022/05/28 02:44:02;;;;;;;3.27;1.87;;;;;;;13.81;60.78;100110.65;1420559;92;21790;-92
2022/05/28 02:46:29;;;;;;;4.10;2.27;;;;;;;13.80;60.34;100108.97;1426441;92;21579;-91
2022/05/28 02:48:55;;;;;;;3.80;2.03;;;;;;;13.81;60.55;100107.13;1431643;92;21513;-90
2022/05/28 02:51:23;;;;;;;4.90;1.77;;;;;;;13.82;60.46;100102.16;1431264;92;21472;-93
2022/05/28 02:53:52;;;;;;;4.77;2.20;;;;;;;13.83;60.93;100099.31;1425231;90;22486;-92
2022/05/28 02:56:20;;;;;;;2.63;1.57;;;;;;;13.86;61.27;100097.63;1429349;92;21400;-93
2022/05/28 02:58:46;;;;;;;6.43;2.00;;;;;;;13.91;61.19;100096.59;1431957;90;21430;-93
2022/05/28 03:01:32;;;;;;;5.27;2.50;;;;;;;13.97;61.23;100096.39;1432560;92;21429;-92
2022/05/28 03:03:58;;;;;;;6.40;2.23;;;;;;;14.00;61.11;100097.36;1429686;90;21503;-93
2022/05/28 03:06:24;;;;;;;10.87;3.17;;;;;;;14.02;60.63;100102.02;1431541;92;21349;-93
2022/05/28 03:08:50;;;;;;;5.53;1.70;;;;;;;14.01;61.19;100109.65;1427718;92;21497;-91
2022/05/28 03:11:16;;;;;;;3.73;2.10;;;;;;;13.99;61.24;100109.02;1419348;90;21614;-90
2022/05/28 03:13:43;;;;;;;8.03;2.03;;;;;;;13.98;61.87;100108.67;1441205;90;21540;-91
2022/05/28 03:16:10;;;;;;;4.17;2.57;;;;;;;13.97;61.09;100119.83;1426237;90;21541;-90
2022/05/28 03:18:37;;;;;;;7.10;3.67;;;;;;;13.96;61.24;100124.83;1424198;92;21511;-90
2022/05/28 03:21:05;;;;;;;5.47;3.23;;;;;;;13.97;60.94;100122.99;1416427;90;22452;-90
2022/05/28 03:23:32;;;;;;;7.10;3.67;;;;;;;13.99;60.82;100119.66;1424638;92;22370;-90
2022/05/28 03:25:58;;;;;;;7.23;3.30;;;;;;;14.00;60.92;100115.48;1432033;92;21438;-92
2022/05/28 03:28:24;;;;;;;6.33;3.70;;;;;;;14.01;61.06;100118.96;1425864;91;21319;-89
2022/05/28 03:30:50;;;;;;;24.37;4.23;;;;;;;14.02;61.09;100119.81;1423260;92;21444;-91
2022/05/28 03:33:16;;;;;;;4.33;2.67;;;;;;;13.98;61.16;100120.17;1425752;90;21562;-91
2022/05/28 03:35:42;;;;;;;12.63;4.73;;;;;;;13.96;61.21;100122.17;1418553;90;21415;-91
2022/05/28 03:38:09;;;;;;;8.77;3.13;;;;;;;13.92;61.12;100132.83;1425319;89;21603;-90
2022/05/28 03:40:35;;;;;;;7.53;3.50;;;;;;;13.91;61.61;100140.49;1416752;91;21851;-91
2022/05/28 03:43:01;;;;;;;5.77;3.20;;;;;;;13.89;61.94;100146.48;1404026;93;21320;-91
2022/05/28 03:45:28;;;;;;;5.50;2.90;;;;;;;13.90;61.24;100141.51;1405672;93;21415;-91
2022/05/28 03:47:56;;;;;;;4.87;2.53;;;;;;;13.91;61.40;100129.84;1407982;93;21445;-90
2022/05/28 03:50:22;;;;;;;5.20;2.60;;;;;;;13.93;61.65;100141.16;1405478;93;21505;-89
2022/05/28 03:52:48;;;;;;;7.53;3.83;;;;;;;13.92;61.60;100139.48;1391358;93;21564;-89
2022/05/28 03:55:15;;;;;;;4.63;2.40;;;;;;;13.93;62.09;100145.14;1399102;93;21515;-94
2022/05/28 03:57:41;;;;;;;7.63;3.27;;;;;;;13.94;62.32;100156.09;1405210;92;21437;-92
2022/05/28 04:00:09;;;;;;;4.43;2.40;;;;;;;13.99;63.28;100148.42;1385578;93;22419;-92
2022/05/28 04:02:35;;;;;;;8.10;3.17;;;;;;;14.06;62.84;100140.55;1408346;93;21401;-91
2022/05/28 04:05:04;;;;;;;6.27;2.60;;;;;;;14.13;62.83;100132.71;1404800;93;21386;-92
2022/05/28 04:07:30;;;;;;;5.40;2.87;;;;;;;14.17;62.74;100135.33;1398287;93;21474;-92
2022/05/28 04:09:56;;;;;;;10.23;3.87;;;;;;;14.17;63.62;100140.65;1414268;93;22458;-91
2022/05/28 04:12:22;;;;;;;3.80;2.30;;;;;;;14.18;62.60;100139.16;1410895;93;21510;-92
2022/05/28 04:14:49;;;;;;;6.23;3.33;;;;;;;14.20;62.39;100129.14;1403019;93;21327;-92
2022/05/28 04:17:16;;;;;;;6.23;2.70;;;;;;;14.21;62.49;100136.14;1406701;93;21909;-90
2022/05/28 04:19:42;;;;;;;3.40;1.80;;;;;;;14.22;61.95;100131.63;1405445;93;22442;-92
2022/05/28 04:22:08;;;;;;;3.33;2.00;;;;;;;14.23;62.12;100130.62;1401794;93;21452;-89
2022/05/28 04:24:35;;;;;;;5.77;2.13;;;;;;;14.25;62.12;100149.09;1407596;93;22228;-90
2022/05/28 04:27:02;;;;;;;3.33;1.80;;;;;;;14.26;62.36;100174.18;1403884;93;21408;-91
2022/05/28 04:29:28;;;;;;;6.70;2.60;;;;;;;14.27;62.73;100159.03;1400959;93;21559;-92
2022/05/28 04:31:54;;;;;;;4.10;1.93;;;;;;;14.32;62.43;100153.50;1408796;93;21497;-91
2022/05/28 04:34:21;;;;;;;4.57;2.07;;;;;;;14.39;62.24;100155.78;1404661;93;21563;-91
2022/05/28 04:36:47;;;;;;;5.30;2.37;;;;;;;14.45;62.14;100164.39;1397470;93;21326;-92
2022/05/28 04:39:13;;;;;;;3.37;1.87;;;;;;;14.53;62.12;100152.87;1405303;90;21567;-93
2022/05/28 04:41:39;;;;;;;7.23;3.07;;;;;;;14.62;62.33;100166.95;1421429;90;21473;-92
2022/05/28 04:44:05;;;;;;;7.67;2.93;;;;;;;14.68;61.66;100152.08;1409953;92;21355;-94
2022/05/28 04:46:32;;;;;;;6.27;2.40;;;;;;;14.73;61.76;100148.34;1402360;92;21377;-91
2022/05/28 04:48:58;;;;;;;6.60;3.20;;;;;;;14.76;61.34;100159.49;1422682;92;22293;-89
2022/05/28 04:51:26;;;;;;;6.67;2.30;;;;;;;14.80;61.24;100170.09;1382221;93;21384;-92
2022/05/28 04:53:52;;;;;;;4.53;2.03;;;;;;;14.77;60.49;100171.80;1376397;93;21466;-94
2022/05/28 04:56:19;;;;;;;4.00;1.80;;;;;;;14.78;60.17;100164.11;1405041;91;22442;-89
2022/05/28 04:58:45;;;;;;;9.63;2.47;;;;;;;14.78;60.16;100159.30;1401912;93;21392;-92
2022/05/28 05:01:15;;;;;;;4.73;2.20;;;;;;;14.77;60.06;100164.31;1411611;93;21452;-90
2022/05/28 05:03:41;;;;;;;10.93;2.62;;;;;;;14.79;60.31;100160.97;1408431;93;21488;-94
2022/05/28 05:06:08;;;;;;;10.30;2.83;;;;;;;14.84;60.89;100157.23;1411304;92;21436;-92
2022/05/28 05:08:34;;;;;;;7.33;2.97;;;;;;;14.86;60.36;100142.72;1404626;93;22503;-91
2022/05/28 05:11:00;;;;;;;7.13;2.60;;;;;;;14.92;60.64;100143.83;1404932;93;21597;-91
2022/05/28 05:13:27;;;;;;;4.23;2.57;;;;;;;15.00;61.04;100151.74;1401251;93;21539;-91
2022/05/28 05:15:53;;;;;;;6.90;3.80;;;;;;;15.03;59.78;100146.55;1399557;93;21379;-90
2022/05/28 05:18:19;;;;;;;4.93;2.60;;;;;;;15.14;60.25;100143.95;1392000;93;21508;-87
2022/05/28 05:20:46;;;;;;;12.67;3.73;;;;;;;15.22;59.84;100142.02;1405505;93;21393;-87
2022/05/28 05:23:12;;;;;;;6.47;3.10;;;;;;;15.29;59.67;100150.91;1379789;93;23452;-85
2022/05/28 05:25:38;;;;;;;8.87;4.23;;;;;;;15.39;60.09;100151.12;1384398;93;21317;-85
2022/05/28 05:28:06;;;;;;;9.07;3.33;;;;;;;15.44;59.60;100152.73;1400695;93;22007;-81
2022/05/28 05:30:32;;;;;;;8.43;3.03;;;;;;;15.53;59.61;100156.95;1406317;92;21460;-85
2022/05/28 05:32:58;;;;;;;9.40;3.67;;;;;;;15.65;59.53;100154.14;1403774;91;21398;-85
2022/05/28 05:35:24;;;;;;;9.07;3.50;;;;;;;15.71;59.11;100157.42;1396492;92;21555;-85
2022/05/28 05:37:50;;;;;;;10.63;4.33;;;;;;;15.74;58.01;100159.72;1404912;92;23319;-85
2022/05/28 05:40:17;;;;;;;9.43;3.07;;;;;;;15.83;58.14;100155.61;1412190;92;21405;-86
2022/05/28 05:42:43;;;;;;;5.57;2.73;;;;;;;15.93;58.33;100161.45;1415075;90;22300;-86
2022/05/28 05:45:10;;;;;;;8.70;3.00;;;;;;;15.95;57.28;100154.91;1404123;92;22487;-87
2022/05/28 05:47:36;;;;;;;6.17;3.23;;;;;;;16.03;57.19;100165.98;1412814;91;22489;-86
2022/05/28 05:50:04;;;;;;;10.60;2.63;;;;;;;16.06;56.52;100178.95;1413689;92;21554;-86
2022/05/28 05:52:30;;;;;;;12.80;3.10;;;;;;;16.06;55.43;100177.61;1419228;92;21391;-84
2022/05/28 05:54:56;;;;;;;8.97;2.73;;;;;;;16.17;56.23;100166.92;1416957;92;21376;-84
2022/05/28 05:57:22;;;;;;;7.33;2.60;;;;;;;16.34;56.10;100156.81;1410746;92;22432;-84
2022/05/28 05:59:48;;;;;;;6.80;2.40;;;;;;;16.50;56.17;100160.56;1418022;92;21391;-85
2022/05/28 06:02:14;;;;;;;6.47;2.23;;;;;;;16.66;55.76;100164.30;1418644;92;21413;-85
2022/05/28 06:04:40;;;;;;;3.87;2.30;;;;;;;16.86;55.31;100151.60;1419756;92;21355;-85
2022/05/28 06:07:07;;;;;;;44.60;4.47;;;;;;;16.87;53.42;100153.27;1411537;92;21353;-84
2022/05/28 06:09:34;;;;;;;9.70;2.97;;;;;;;16.99;53.96;100146.87;1416891;92;21340;-84
2022/05/28 06:12:01;;;;;;;6.37;2.10;;;;;;;17.08;53.99;100141.67;1403007;92;22374;-84
2022/05/28 06:14:27;;;;;;;7.13;2.10;;;;;;;17.17;54.45;100128.97;1421742;92;22528;-83
2022/05/28 06:16:53;;;;;;;7.10;2.27;;;;;;;17.31;53.98;100125.34;1415206;92;21494;-84
2022/05/28 06:19:19;;;;;;;7.53;1.93;;;;;;;17.48;53.62;100129.31;1421462;92;21443;-85
2022/05/28 06:21:45;;;;;;;6.33;1.60;;;;;;;17.71;53.22;100126.83;1419698;92;21459;-84
